createdAt,value
2023-02-06T00:01:52.911Z,5.00
2023-02-06T00:04:22.564Z,4.93
2023-02-06T00:06:50.607Z,4.20
2023-02-06T00:09:19.988Z,5.47
2023-02-06T00:11:48.964Z,6.10
2023-02-06T00:14:17.016Z,6.10
2023-02-06T00:16:46.001Z,7.10
2023-02-06T00:19:14.021Z,6.63
2023-02-06T00:21:42.748Z,6.03
2023-02-06T00:24:11.322Z,5.90
2023-02-06T00:26:40.677Z,6.37
2023-02-06T00:29:09.140Z,6.70
2023-02-06T00:31:39.594Z,5.90
2023-02-06T00:34:09.309Z,5.13
2023-02-06T00:36:38.313Z,5.80
2023-02-06T00:39:08.755Z,5.13
2023-02-06T00:41:40.442Z,4.60
2023-02-06T00:44:08.435Z,6.13
2023-02-06T00:46:37.987Z,6.23
2023-02-06T00:49:07.180Z,5.00
2023-02-06T00:51:39.185Z,5.83
2023-02-06T00:54:07.581Z,5.03
2023-02-06T00:56:36.942Z,5.23
2023-02-06T00:59:07.188Z,4.93
2023-02-06T01:01:36.846Z,5.20
2023-02-06T01:04:05.049Z,7.20
2023-02-06T01:06:33.410Z,5.20
2023-02-06T01:09:02.475Z,5.80
2023-02-06T01:11:30.499Z,5.53
2023-02-06T01:14:02.980Z,5.20
2023-02-06T01:16:32.333Z,5.50
2023-02-06T01:19:03.720Z,5.80
2023-02-06T01:21:32.248Z,6.23
2023-02-06T01:24:00.322Z,5.43
2023-02-06T01:26:29.131Z,5.10
2023-02-06T01:28:58.528Z,6.20
2023-02-06T01:31:29.665Z,5.40
2023-02-06T01:34:09.787Z,5.70
2023-02-06T01:36:37.800Z,6.20
2023-02-06T01:39:06.884Z,4.80
2023-02-06T01:41:35.985Z,6.20
2023-02-06T01:44:11.589Z,5.53
2023-02-06T01:46:43.589Z,6.33
2023-02-06T01:49:16.836Z,6.00
2023-02-06T01:51:47.727Z,5.20
2023-02-06T01:54:17.667Z,5.87
2023-02-06T01:56:53.204Z,6.37
2023-02-06T01:59:22.943Z,4.43
2023-02-06T02:01:50.946Z,5.17
2023-02-06T02:04:24.800Z,6.93
2023-02-06T02:07:02.732Z,5.50
2023-02-06T02:09:33.671Z,5.50
2023-02-06T02:12:02.450Z,6.50
2023-02-06T02:14:31.759Z,4.30
2023-02-06T02:17:23.620Z,5.33
2023-02-06T02:20:15.163Z,5.30
2023-02-06T02:22:54.304Z,5.40
2023-02-06T02:25:58.736Z,4.40
2023-02-06T02:29:09.445Z,5.53
2023-02-06T02:32:11.450Z,4.53
2023-02-06T02:35:12.335Z,4.10
2023-02-06T02:37:53.456Z,6.40
2023-02-06T02:40:34.992Z,4.43
2023-02-06T02:43:10.044Z,4.87
2023-02-06T02:45:45.180Z,6.90
2023-02-06T02:48:17.813Z,5.20
2023-02-06T02:50:50.886Z,5.00
2023-02-06T02:53:18.906Z,4.67
2023-02-06T02:55:47.009Z,6.80
2023-02-06T02:58:19.120Z,5.30
2023-02-06T03:00:52.734Z,5.60
2023-02-06T03:03:23.298Z,5.63
2023-02-06T03:06:07.142Z,5.30
2023-02-06T03:08:43.729Z,7.40
2023-02-06T03:11:15.751Z,5.80
2023-02-06T03:13:49.913Z,5.10
2023-02-06T03:16:25.714Z,6.87
2023-02-06T03:19:00.525Z,5.03
2023-02-06T03:21:31.285Z,6.63
2023-02-06T03:24:02.158Z,7.00
2023-02-06T03:26:33.028Z,6.20
2023-02-06T03:29:06.672Z,5.10
2023-02-06T03:31:40.494Z,6.43
2023-02-06T03:34:12.782Z,6.67
2023-02-06T03:36:42.892Z,6.53
2023-02-06T03:39:11.348Z,6.10
2023-02-06T03:41:42.180Z,5.83
2023-02-06T03:44:13.766Z,6.57
2023-02-06T03:46:44.585Z,5.60
2023-02-06T03:49:16.194Z,6.83
2023-02-06T03:51:50.593Z,6.50
2023-02-06T03:54:22.651Z,6.83
2023-02-06T03:56:54.924Z,5.70
2023-02-06T03:59:23.241Z,5.87
2023-02-06T04:01:56.439Z,5.50
2023-02-06T04:04:29.096Z,6.47
2023-02-06T04:07:02.955Z,6.03
2023-02-06T04:09:33.738Z,6.93
2023-02-06T04:12:02.690Z,6.60
2023-02-06T04:14:31.151Z,6.20
2023-02-06T04:17:06.693Z,7.17
2023-02-06T04:19:36.220Z,4.83
2023-02-06T04:22:07.622Z,6.00
2023-02-06T04:24:37.186Z,5.70
2023-02-06T04:27:05.638Z,6.33
2023-02-06T04:29:34.849Z,5.73
2023-02-06T04:32:03.682Z,6.13
2023-02-06T04:34:32.063Z,5.13
2023-02-06T04:37:00.790Z,6.77
2023-02-06T04:39:31.690Z,6.33
2023-02-06T04:42:00.273Z,5.80
2023-02-06T04:44:28.786Z,6.47
2023-02-06T04:46:56.787Z,6.63
2023-02-06T04:49:27.109Z,6.53
2023-02-06T04:51:55.181Z,5.60
2023-02-06T04:54:23.747Z,6.60
2023-02-06T04:56:53.588Z,5.93
2023-02-06T04:59:23.036Z,6.10
2023-02-06T05:01:52.704Z,6.17
2023-02-06T05:04:22.691Z,7.70
2023-02-06T05:06:50.744Z,8.00
2023-02-06T05:09:19.227Z,6.50
2023-02-06T05:11:49.335Z,6.80
2023-02-06T05:14:19.168Z,6.13
2023-02-06T05:16:47.256Z,5.10
2023-02-06T05:19:15.272Z,4.90
2023-02-06T05:21:43.822Z,5.63
2023-02-06T05:24:12.808Z,6.13
2023-02-06T05:26:40.799Z,7.40
2023-02-06T05:29:09.025Z,6.00
2023-02-06T05:31:40.530Z,6.07
2023-02-06T05:34:10.918Z,6.80
2023-02-06T05:36:39.235Z,5.57
2023-02-06T05:39:07.774Z,6.40
2023-02-06T05:41:37.011Z,5.77
2023-02-06T05:44:06.538Z,6.20
2023-02-06T05:46:35.744Z,5.83
2023-02-06T05:49:05.893Z,5.70
2023-02-06T05:51:33.945Z,6.63
2023-02-06T05:54:02.515Z,6.33
2023-02-06T05:56:30.656Z,6.27
2023-02-06T05:58:59.622Z,6.50
2023-02-06T06:01:29.751Z,6.80
2023-02-06T06:03:58.314Z,5.50
2023-02-06T06:06:28.773Z,6.27
2023-02-06T06:08:58.732Z,6.10
2023-02-06T06:11:26.922Z,6.77
2023-02-06T06:13:54.905Z,6.00
2023-02-06T06:16:23.444Z,7.77
2023-02-06T06:18:51.695Z,8.07
2023-02-06T06:21:20.499Z,7.20
2023-02-06T06:23:50.028Z,8.40
2023-02-06T06:26:20.623Z,7.03
2023-02-06T06:28:48.869Z,8.63
2023-02-06T06:31:17.013Z,10.77
2023-02-06T06:33:45.099Z,8.10
2023-02-06T06:36:14.556Z,9.67
2023-02-06T06:38:42.821Z,10.77
2023-02-06T06:41:12.409Z,9.57
2023-02-06T06:43:41.221Z,12.40
2023-02-06T06:46:10.128Z,10.97
2023-02-06T06:48:40.738Z,11.23
2023-02-06T06:51:08.733Z,10.70
2023-02-06T06:53:39.827Z,11.97
2023-02-06T06:56:10.763Z,11.57
2023-02-06T06:58:41.289Z,10.03
2023-02-06T07:01:10.283Z,10.50
2023-02-06T07:03:38.646Z,10.37
2023-02-06T07:06:06.873Z,11.90
2023-02-06T07:08:35.915Z,10.43
2023-02-06T07:11:04.037Z,10.90
2023-02-06T07:13:35.880Z,10.63
2023-02-06T07:16:05.823Z,12.93
2023-02-06T07:18:34.089Z,12.80
2023-02-06T07:21:03.825Z,12.80
2023-02-06T07:23:31.852Z,12.77
2023-02-06T07:26:02.677Z,12.63
2023-02-06T07:28:34.019Z,11.90
2023-02-06T07:31:02.613Z,11.90
2023-02-06T07:33:32.119Z,12.93
2023-02-06T07:36:04.181Z,13.03
2023-02-06T07:38:32.846Z,9.83
2023-02-06T07:41:03.187Z,12.80
2023-02-06T07:43:35.663Z,11.67
2023-02-06T07:46:05.922Z,12.17
2023-02-06T07:48:35.378Z,10.13
2023-02-06T07:51:08.603Z,12.80
2023-02-06T07:53:37.687Z,11.20
2023-02-06T07:56:14.436Z,10.20
2023-02-06T07:58:43.140Z,10.33
2023-02-06T08:01:12.120Z,10.27
2023-02-06T08:03:42.043Z,10.57
2023-02-06T08:06:11.705Z,14.47
2023-02-06T08:08:41.805Z,13.57
2023-02-06T08:11:12.053Z,17.30
2023-02-06T08:13:40.382Z,16.83
2023-02-06T08:16:10.988Z,16.60
2023-02-06T08:18:41.481Z,19.13
2023-02-06T08:21:12.783Z,18.33
2023-02-06T08:23:42.041Z,19.73
2023-02-06T08:26:12.861Z,19.87
2023-02-06T08:28:42.367Z,18.50
2023-02-06T08:31:12.618Z,15.90
2023-02-06T08:33:42.984Z,19.77
2023-02-06T08:36:13.604Z,21.37
2023-02-06T08:38:43.008Z,20.00
2023-02-06T08:41:18.664Z,21.07
2023-02-06T08:43:47.709Z,20.47
2023-02-06T08:46:16.845Z,17.97
2023-02-06T08:48:47.865Z,17.20
2023-02-06T08:51:16.284Z,17.43
2023-02-06T08:53:44.783Z,17.50
2023-02-06T08:56:13.648Z,19.20
2023-02-06T08:58:41.928Z,23.47
2023-02-06T09:01:14.220Z,21.60
2023-02-06T09:03:43.111Z,23.70
2023-02-06T09:06:14.237Z,23.20
2023-02-06T09:08:45.834Z,24.30
2023-02-06T09:11:16.442Z,26.27
2023-02-06T09:13:49.375Z,27.90
2023-02-06T09:16:19.454Z,29.50
2023-02-06T09:18:48.385Z,27.03
2023-02-06T09:21:20.771Z,29.37
2023-02-06T09:23:51.878Z,30.10
2023-02-06T09:26:23.234Z,28.70
2023-02-06T09:28:54.751Z,28.70
2023-02-06T09:31:22.819Z,27.00
2023-02-06T09:33:51.471Z,23.13
2023-02-06T09:36:24.279Z,24.43
2023-02-06T09:38:57.826Z,23.07
2023-02-06T09:41:34.920Z,18.20
2023-02-06T09:44:10.104Z,18.60
2023-02-06T09:46:43.822Z,17.77
2023-02-06T09:49:22.515Z,12.27
2023-02-06T09:52:20.078Z,11.87
2023-02-06T09:54:55.610Z,8.40
2023-02-06T09:57:35.656Z,9.33
2023-02-06T10:00:12.454Z,8.57
2023-02-06T10:03:00.471Z,10.10
2023-02-06T10:05:39.097Z,8.73
2023-02-06T10:08:20.582Z,10.33
2023-02-06T10:10:54.505Z,8.20
2023-02-06T10:13:31.271Z,8.60
2023-02-06T10:16:05.243Z,9.00
2023-02-06T10:18:38.543Z,8.63
2023-02-06T10:21:13.931Z,11.20
2023-02-06T10:23:49.840Z,8.33
2023-02-06T10:26:22.075Z,8.60
2023-02-06T10:28:54.402Z,9.20
2023-02-06T10:31:50.459Z,9.07
2023-02-06T10:34:36.281Z,9.73
2023-02-06T10:37:19.805Z,8.43
2023-02-06T10:40:22.560Z,9.23
2023-02-06T10:42:58.962Z,8.70
2023-02-06T10:45:45.162Z,8.83
2023-02-06T10:48:31.459Z,8.13
2023-02-06T10:51:11.922Z,8.20
2023-02-06T10:53:46.879Z,9.00
2023-02-06T10:56:22.420Z,7.47
2023-02-06T10:58:56.884Z,9.67
2023-02-06T11:01:28.346Z,8.13
2023-02-06T11:04:05.216Z,8.40
2023-02-06T11:06:33.671Z,9.70
2023-02-06T11:09:02.839Z,9.30
2023-02-06T11:11:38.168Z,9.30
2023-02-06T11:14:12.725Z,9.13
2023-02-06T11:16:42.709Z,8.67
2023-02-06T11:19:18.381Z,9.40
2023-02-06T11:21:53.877Z,9.83
2023-02-06T11:24:24.534Z,10.07
2023-02-06T11:26:58.112Z,9.30
2023-02-06T11:29:29.302Z,8.00
2023-02-06T11:32:01.209Z,8.60
2023-02-06T11:34:32.723Z,9.23
2023-02-06T11:37:04.052Z,7.73
2023-02-06T11:39:34.345Z,8.97
2023-02-06T11:42:06.901Z,8.90
2023-02-06T11:44:40.803Z,9.80
2023-02-06T11:47:29.479Z,12.00
2023-02-06T11:49:58.750Z,14.43
2023-02-06T11:52:31.816Z,14.20
2023-02-06T11:55:03.274Z,18.13
2023-02-06T11:57:35.486Z,19.20
2023-02-06T12:00:22.374Z,19.30
2023-02-06T12:02:52.941Z,15.07
2023-02-06T12:05:28.520Z,14.20
2023-02-06T12:08:01.058Z,16.00
2023-02-06T12:10:34.344Z,16.73
2023-02-06T12:13:09.046Z,19.80
2023-02-06T12:15:47.618Z,19.03
2023-02-06T12:18:19.584Z,22.97
2023-02-06T12:20:53.073Z,24.70
2023-02-06T12:23:26.504Z,21.13
2023-02-06T12:25:59.035Z,23.47
2023-02-06T12:28:32.578Z,25.80
2023-02-06T12:31:05.384Z,28.53
2023-02-06T12:33:41.222Z,28.07
2023-02-06T12:36:17.219Z,33.03
2023-02-06T12:38:51.769Z,28.43
2023-02-06T12:41:46.648Z,26.63
2023-02-06T12:44:28.423Z,19.90
2023-02-06T12:47:02.862Z,15.83
2023-02-06T12:49:36.648Z,16.87
2023-02-06T12:52:13.584Z,14.57
2023-02-06T12:54:48.060Z,11.90
2023-02-06T12:57:20.817Z,10.63
2023-02-06T13:00:13.691Z,8.50
2023-02-06T13:03:21.124Z,8.00
2023-02-06T13:05:52.808Z,9.77
2023-02-06T13:08:27.611Z,8.30
2023-02-06T13:11:05.973Z,8.03
2023-02-06T13:13:37.528Z,8.70
2023-02-06T13:16:09.129Z,8.13
2023-02-06T13:18:53.601Z,8.20
2023-02-06T13:21:28.425Z,8.00
2023-02-06T13:24:16.368Z,7.97
2023-02-06T13:27:04.612Z,9.27
2023-02-06T13:29:33.785Z,7.73
2023-02-06T13:32:46.670Z,6.83
2023-02-06T13:35:29.116Z,7.70
2023-02-06T13:38:28.791Z,7.63
2023-02-06T13:41:26.205Z,8.87
2023-02-06T13:43:58.169Z,9.20
2023-02-06T13:46:48.868Z,5.93
2023-02-06T13:49:36.919Z,8.07
2023-02-06T13:52:14.439Z,7.53
2023-02-06T13:55:00.508Z,6.47
2023-02-06T13:57:56.044Z,6.70
2023-02-06T14:00:26.486Z,7.63
2023-02-06T14:02:56.617Z,5.77
2023-02-06T14:05:41.410Z,6.73
2023-02-06T14:08:19.826Z,5.97
2023-02-06T14:11:07.406Z,6.60
2023-02-06T14:13:58.039Z,7.37
2023-02-06T14:16:39.365Z,6.63
2023-02-06T14:19:18.887Z,7.13
2023-02-06T14:21:58.667Z,7.50
2023-02-06T14:25:05.265Z,8.20
2023-02-06T14:27:44.814Z,8.20
2023-02-06T14:30:25.623Z,7.40
2023-02-06T14:33:06.676Z,6.90
2023-02-06T14:35:48.713Z,7.50
2023-02-06T14:38:47.117Z,8.20
2023-02-06T14:41:17.147Z,8.80
2023-02-06T14:43:47.434Z,9.30
2023-02-06T14:46:18.960Z,9.30
2023-02-06T14:48:50.048Z,9.03
2023-02-06T14:51:28.205Z,9.30
2023-02-06T14:54:01.416Z,11.70
2023-02-06T14:56:33.000Z,13.70
2023-02-06T14:59:17.335Z,12.90
2023-02-06T15:01:47.407Z,13.80
2023-02-06T15:04:19.397Z,12.60
2023-02-06T15:06:56.596Z,13.60
2023-02-06T15:09:31.406Z,12.03
2023-02-06T15:12:02.343Z,11.03
2023-02-06T15:14:34.015Z,13.80
2023-02-06T15:17:03.427Z,13.83
2023-02-06T15:19:37.382Z,16.27
2023-02-06T15:22:11.070Z,13.17
2023-02-06T15:25:05.980Z,13.70
2023-02-06T15:27:35.998Z,14.00
2023-02-06T15:30:19.055Z,12.93
2023-02-06T15:32:51.661Z,13.60
2023-02-06T15:35:22.181Z,13.03
2023-02-06T15:37:51.684Z,12.60
2023-02-06T15:40:28.321Z,13.07
2023-02-06T15:42:57.175Z,10.20
2023-02-06T15:45:27.778Z,10.73
2023-02-06T15:47:56.925Z,11.00
2023-02-06T15:50:28.815Z,13.10
2023-02-06T15:53:00.907Z,12.73
2023-02-06T15:55:34.695Z,12.33
2023-02-06T15:58:05.565Z,13.00
2023-02-06T16:00:39.858Z,13.30
2023-02-06T16:03:16.966Z,10.73
2023-02-06T16:05:46.305Z,11.73
2023-02-06T16:08:19.983Z,9.63
2023-02-06T16:10:53.203Z,10.47
2023-02-06T16:13:24.025Z,9.60
2023-02-06T16:16:08.841Z,8.00
2023-02-06T16:18:38.327Z,7.40
2023-02-06T16:21:21.678Z,7.70
2023-02-06T16:23:52.638Z,5.37
2023-02-06T16:26:24.420Z,6.33
2023-02-06T16:29:02.157Z,5.63
2023-02-06T16:31:33.030Z,4.20
2023-02-06T16:34:03.080Z,5.63
2023-02-06T16:36:33.528Z,4.97
2023-02-06T16:39:04.471Z,4.90
2023-02-06T16:41:38.585Z,5.23
2023-02-06T16:44:13.209Z,4.90
2023-02-06T16:46:41.496Z,4.30
2023-02-06T16:49:15.928Z,4.53
2023-02-06T16:51:47.081Z,4.17
2023-02-06T16:54:21.374Z,5.33
2023-02-06T16:56:52.230Z,5.43
2023-02-06T16:59:22.332Z,5.30
2023-02-06T17:01:50.824Z,5.00
2023-02-06T17:04:20.355Z,5.80
2023-02-06T17:06:50.149Z,5.50
2023-02-06T17:09:19.596Z,5.40
2023-02-06T17:11:48.088Z,4.43
2023-02-06T17:14:17.545Z,7.23
2023-02-06T17:16:47.334Z,5.63
2023-02-06T17:19:15.969Z,5.17
2023-02-06T17:21:44.010Z,5.43
2023-02-06T17:24:13.070Z,4.43
2023-02-06T17:26:43.541Z,7.70
2023-02-06T17:29:17.666Z,7.27
2023-02-06T17:31:48.122Z,6.80
2023-02-06T17:34:16.220Z,6.93
2023-02-06T17:36:46.581Z,6.23
2023-02-06T17:39:15.517Z,5.53
2023-02-06T17:41:43.539Z,6.97
2023-02-06T17:44:12.850Z,5.57
2023-02-06T17:46:41.510Z,5.80
2023-02-06T17:49:11.281Z,6.20
2023-02-06T17:51:41.419Z,7.00
2023-02-06T17:54:12.093Z,6.33
2023-02-06T17:56:40.461Z,7.93
2023-02-06T17:59:08.565Z,7.47
2023-02-06T18:01:38.251Z,9.20
2023-02-06T18:04:06.974Z,9.40
2023-02-06T18:06:37.386Z,9.17
2023-02-06T18:09:05.934Z,8.80
2023-02-06T18:11:36.657Z,11.10
2023-02-06T18:14:05.721Z,7.30
2023-02-06T18:16:33.921Z,8.50
2023-02-06T18:19:02.788Z,8.53
2023-02-06T18:21:31.406Z,8.13
2023-02-06T18:24:01.950Z,8.03
2023-02-06T18:26:29.976Z,7.03
2023-02-06T18:28:58.471Z,8.93
2023-02-06T18:31:30.186Z,7.60
2023-02-06T18:34:00.119Z,8.17
2023-02-06T18:36:28.267Z,7.37
2023-02-06T18:38:56.760Z,8.20
2023-02-06T18:41:44.120Z,9.13
2023-02-06T18:44:15.913Z,9.10
2023-02-06T18:46:44.951Z,8.63
2023-02-06T18:49:15.529Z,8.50
2023-02-06T18:51:44.229Z,7.83
2023-02-06T18:54:12.467Z,8.30
2023-02-06T18:56:42.296Z,8.63
2023-02-06T18:59:10.338Z,8.67
2023-02-06T19:01:39.120Z,9.70
2023-02-06T19:04:07.537Z,8.10
2023-02-06T19:06:36.622Z,7.60
2023-02-06T19:09:07.016Z,10.63
2023-02-06T19:11:35.652Z,12.37
2023-02-06T19:14:07.428Z,8.60
2023-02-06T19:16:38.313Z,10.83
2023-02-06T19:19:10.151Z,8.73
2023-02-06T19:21:39.350Z,10.67
2023-02-06T19:24:08.729Z,9.07
2023-02-06T19:26:36.738Z,9.67
2023-02-06T19:29:13.133Z,11.13
2023-02-06T19:31:43.101Z,9.20
2023-02-06T19:34:11.354Z,9.20
2023-02-06T19:36:40.154Z,11.00
2023-02-06T19:39:10.474Z,11.33
2023-02-06T19:41:39.144Z,9.63
2023-02-06T19:44:10.969Z,11.37
2023-02-06T19:46:39.886Z,10.40
2023-02-06T19:49:09.916Z,12.17
2023-02-06T19:51:41.326Z,11.93
2023-02-06T19:54:09.696Z,11.17
2023-02-06T19:56:45.138Z,11.20
2023-02-06T19:59:19.835Z,11.33
2023-02-06T20:01:49.370Z,11.40
2023-02-06T20:04:19.282Z,12.47
2023-02-06T20:06:49.196Z,11.70
2023-02-06T20:09:19.083Z,13.13
2023-02-06T20:11:48.977Z,13.43
2023-02-06T20:14:21.484Z,13.40
2023-02-06T20:16:50.638Z,12.47
2023-02-06T20:19:22.171Z,13.93
2023-02-06T20:21:52.644Z,11.90
2023-02-06T20:24:23.518Z,12.00
2023-02-06T20:26:55.757Z,11.83
2023-02-06T20:29:28.951Z,12.33
2023-02-06T20:31:58.120Z,12.20
2023-02-06T20:34:28.667Z,13.00
2023-02-06T20:36:57.857Z,13.07
2023-02-06T20:39:27.564Z,14.47
2023-02-06T20:41:55.842Z,12.67
2023-02-06T20:44:26.373Z,12.20
2023-02-06T20:46:54.832Z,15.10
2023-02-06T20:49:24.885Z,11.90
2023-02-06T20:51:53.458Z,15.37
2023-02-06T20:54:23.388Z,13.97
2023-02-06T20:56:51.673Z,13.23
2023-02-06T20:59:21.451Z,14.27
2023-02-06T21:01:54.038Z,12.70
2023-02-06T21:04:22.721Z,13.00
2023-02-06T21:06:50.736Z,13.30
2023-02-06T21:09:20.054Z,13.20
2023-02-06T21:11:50.339Z,13.23
2023-02-06T21:14:21.903Z,11.73
2023-02-06T21:16:51.314Z,12.07
2023-02-06T21:19:22.321Z,12.37
2023-02-06T21:21:50.515Z,11.00
2023-02-06T21:24:19.706Z,10.30
2023-02-06T21:26:47.774Z,10.90
2023-02-06T21:29:17.059Z,12.57
2023-02-06T21:31:46.586Z,11.67
2023-02-06T21:34:19.584Z,11.93
2023-02-06T21:36:48.747Z,11.03
2023-02-06T21:39:19.115Z,11.03
2023-02-06T21:41:49.212Z,11.10
2023-02-06T21:44:17.977Z,10.33
2023-02-06T21:46:45.953Z,10.07
2023-02-06T21:49:15.987Z,11.47
2023-02-06T21:51:44.217Z,10.53
2023-02-06T21:54:12.673Z,10.30
2023-02-06T21:56:41.235Z,12.40
2023-02-06T21:59:10.906Z,12.90
2023-02-06T22:01:40.968Z,11.20
2023-02-06T22:04:11.525Z,11.70
2023-02-06T22:06:41.082Z,11.30
2023-02-06T22:09:15.128Z,10.20
2023-02-06T22:11:43.486Z,12.40
2023-02-06T22:14:15.221Z,10.90
2023-02-06T22:16:47.301Z,11.83
2023-02-06T22:19:16.758Z,11.93
2023-02-06T22:21:46.417Z,11.63
2023-02-06T22:24:15.001Z,14.47
2023-02-06T22:26:43.297Z,10.67
2023-02-06T22:29:16.393Z,10.83
2023-02-06T22:31:45.868Z,12.10
2023-02-06T22:34:16.907Z,13.33
2023-02-06T22:36:46.838Z,12.00
2023-02-06T22:39:16.166Z,13.67
2023-02-06T22:41:46.261Z,12.77
2023-02-06T22:44:16.400Z,12.40
2023-02-06T22:46:46.700Z,12.40
2023-02-06T22:49:15.530Z,13.43
2023-02-06T22:51:44.402Z,13.40
2023-02-06T22:54:14.294Z,12.80
2023-02-06T22:56:43.601Z,13.27
2023-02-06T22:59:14.455Z,11.83
2023-02-06T23:01:44.564Z,12.70
2023-02-06T23:04:15.367Z,12.50
2023-02-06T23:06:44.829Z,13.10
2023-02-06T23:09:17.349Z,12.17
2023-02-06T23:11:46.697Z,13.07
2023-02-06T23:14:18.256Z,13.97
2023-02-06T23:16:47.584Z,13.37
2023-02-06T23:19:16.417Z,14.00
2023-02-06T23:21:47.441Z,13.70
2023-02-06T23:24:18.222Z,14.33
2023-02-06T23:26:49.860Z,13.20
2023-02-06T23:29:22.547Z,13.63
2023-02-06T23:31:51.794Z,14.53
2023-02-06T23:34:23.932Z,13.97
2023-02-06T23:36:53.345Z,13.70
2023-02-06T23:39:23.191Z,14.03
2023-02-06T23:41:53.044Z,12.43
2023-02-06T23:44:22.251Z,15.80
2023-02-06T23:46:53.096Z,16.80
2023-02-06T23:49:21.141Z,15.63
2023-02-06T23:51:50.635Z,16.07
2023-02-06T23:54:20.265Z,16.37
2023-02-06T23:56:49.661Z,16.73
2023-02-06T23:59:19.269Z,14.80
